createdAt,value
2023-02-27T00:00:16.376Z,97384.44
2023-02-27T00:02:44.177Z,97392.09
2023-02-27T00:05:11.258Z,97377.47
2023-02-27T00:07:39.181Z,97384.03
2023-02-27T00:10:07.249Z,97389.78
2023-02-27T00:12:37.758Z,97380.03
2023-02-27T00:15:13.741Z,97387.19
2023-02-27T00:17:40.542Z,97385.13
2023-02-27T00:20:11.268Z,97381.28
2023-02-27T00:22:40.941Z,97387.00
2023-02-27T00:25:08.831Z,97387.78
2023-02-27T00:27:35.278Z,97388.84
2023-02-27T00:30:01.708Z,97390.84
2023-02-27T00:32:29.379Z,97386.19
2023-02-27T00:34:55.855Z,97386.44
2023-02-27T00:37:24.366Z,97381.13
2023-02-27T00:39:51.087Z,97383.78
2023-02-27T00:42:17.578Z,97389.00
2023-02-27T00:44:44.081Z,97395.09
2023-02-27T00:47:10.704Z,97392.06
2023-02-27T00:49:37.175Z,97398.06
2023-02-27T00:52:03.725Z,97397.22
2023-02-27T00:54:30.155Z,97394.88
2023-02-27T00:56:56.669Z,97386.41
2023-02-27T00:59:23.248Z,97389.38
2023-02-27T01:01:50.732Z,97394.59
2023-02-27T01:04:17.218Z,97392.50
2023-02-27T01:06:43.647Z,97387.97
2023-02-27T01:09:10.165Z,97391.13
2023-02-27T01:11:36.716Z,97394.72
2023-02-27T01:14:04.320Z,97390.72
2023-02-27T01:16:31.369Z,97388.47
2023-02-27T01:18:57.870Z,97387.16
2023-02-27T01:21:25.214Z,97381.63
2023-02-27T01:23:51.941Z,97381.94
2023-02-27T01:26:18.416Z,97379.16
2023-02-27T01:28:49.178Z,97383.69
2023-02-27T01:31:16.950Z,97382.88
2023-02-27T01:33:43.437Z,97389.81
2023-02-27T01:36:10.320Z,97388.81
2023-02-27T01:38:36.954Z,97383.94
2023-02-27T01:41:05.054Z,97382.88
2023-02-27T01:43:31.586Z,97387.13
2023-02-27T01:45:59.418Z,97385.59
2023-02-27T01:48:32.318Z,97387.44
2023-02-27T01:51:07.321Z,97388.09
2023-02-27T01:53:36.417Z,97382.22
2023-02-27T01:56:10.344Z,97383.34
2023-02-27T01:58:38.036Z,97387.28
2023-02-27T02:01:05.117Z,97384.88
2023-02-27T02:03:39.101Z,97388.50
2023-02-27T02:06:07.209Z,97389.69
2023-02-27T02:08:38.381Z,97397.41
2023-02-27T02:11:06.259Z,97395.31
2023-02-27T02:13:33.470Z,97393.19
2023-02-27T02:16:25.456Z,97398.50
2023-02-27T02:18:54.738Z,97399.63
2023-02-27T02:22:00.894Z,97404.09
2023-02-27T02:25:00.524Z,97412.34
2023-02-27T02:27:32.310Z,97412.06
2023-02-27T02:30:22.339Z,97408.63
2023-02-27T02:33:02.042Z,97412.47
2023-02-27T02:35:53.404Z,97419.97
2023-02-27T02:39:10.335Z,97421.41
2023-02-27T02:41:55.872Z,97410.66
2023-02-27T02:44:35.446Z,97412.00
2023-02-27T02:47:07.529Z,97421.00
2023-02-27T02:50:14.849Z,97426.16
2023-02-27T02:53:11.289Z,97433.25
2023-02-27T02:55:50.926Z,97426.03
2023-02-27T02:58:22.797Z,97433.81
2023-02-27T03:00:52.756Z,97435.19
2023-02-27T03:03:35.069Z,97441.19
2023-02-27T03:06:07.664Z,97434.66
2023-02-27T03:08:39.902Z,97443.53
2023-02-27T03:11:07.160Z,97438.38
2023-02-27T03:13:56.586Z,97447.13
2023-02-27T03:16:41.156Z,97443.47
2023-02-27T03:19:16.270Z,97439.47
2023-02-27T03:22:02.095Z,97450.81
2023-02-27T03:24:43.452Z,97456.22
2023-02-27T03:27:10.234Z,97452.28
2023-02-27T03:29:53.525Z,97445.06
2023-02-27T03:32:29.068Z,97451.25
2023-02-27T03:34:57.754Z,97451.66
2023-02-27T03:37:34.773Z,97451.59
2023-02-27T03:40:19.694Z,97454.50
2023-02-27T03:43:23.545Z,97459.09
2023-02-27T03:46:08.784Z,97460.84
2023-02-27T03:48:35.486Z,97455.09
2023-02-27T03:51:02.532Z,97458.56
2023-02-27T03:53:46.305Z,97457.59
2023-02-27T03:56:16.597Z,97459.25
2023-02-27T03:58:43.684Z,97460.34
2023-02-27T04:01:10.193Z,97463.84
2023-02-27T04:03:43.821Z,97468.97
2023-02-27T04:06:29.462Z,97463.41
2023-02-27T04:09:13.838Z,97468.28
2023-02-27T04:11:55.850Z,97469.38
2023-02-27T04:14:22.171Z,97472.16
2023-02-27T04:17:21.362Z,97476.78
2023-02-27T04:19:58.116Z,97472.34
2023-02-27T04:22:46.428Z,97467.41
2023-02-27T04:25:27.729Z,97475.88
2023-02-27T04:27:58.269Z,97469.34
2023-02-27T04:31:11.624Z,97472.88
2023-02-27T04:34:13.667Z,97477.47
2023-02-27T04:36:50.959Z,97478.47
2023-02-27T04:39:27.109Z,97474.31
2023-02-27T04:42:01.655Z,97475.28
2023-02-27T04:44:33.688Z,97474.50
2023-02-27T04:47:03.091Z,97471.03
2023-02-27T04:49:34.589Z,97471.69
2023-02-27T04:52:13.530Z,97472.44
2023-02-27T04:54:46.533Z,97467.09
2023-02-27T04:57:19.596Z,97466.16
2023-02-27T04:59:51.901Z,97468.38
2023-02-27T05:02:25.051Z,97481.16
2023-02-27T05:04:56.868Z,97474.34
2023-02-27T05:07:25.735Z,97477.69
2023-02-27T05:10:02.555Z,97485.56
2023-02-27T05:12:42.005Z,97488.47
2023-02-27T05:15:14.012Z,97482.59
2023-02-27T05:17:57.965Z,97479.22
2023-02-27T05:20:29.546Z,97481.00
2023-02-27T05:23:00.969Z,97495.16
2023-02-27T05:25:39.560Z,97487.38
2023-02-27T05:28:33.603Z,97488.63
2023-02-27T05:31:21.412Z,97484.50
2023-02-27T05:34:37.911Z,97495.47
2023-02-27T05:37:29.200Z,97496.59
2023-02-27T05:39:55.691Z,97501.84
2023-02-27T05:42:31.460Z,97501.94
2023-02-27T05:45:05.666Z,97501.13
2023-02-27T05:47:37.275Z,97511.97
2023-02-27T05:50:11.693Z,97507.81
2023-02-27T05:52:40.897Z,97503.50
2023-02-27T05:55:15.038Z,97506.13
2023-02-27T05:57:55.942Z,97509.47
2023-02-27T06:01:00.834Z,97516.19
2023-02-27T06:03:29.521Z,97523.19
2023-02-27T06:05:58.755Z,97522.09
2023-02-27T06:08:27.363Z,97525.94
2023-02-27T06:10:57.704Z,97535.03
2023-02-27T06:13:26.022Z,97533.03
2023-02-27T06:15:53.057Z,97536.84
2023-02-27T06:18:19.934Z,97532.72
2023-02-27T06:20:47.124Z,97542.69
2023-02-27T06:23:14.975Z,97553.91
2023-02-27T06:25:44.494Z,97545.31
2023-02-27T06:28:11.098Z,97549.28
2023-02-27T06:30:38.226Z,97554.16
2023-02-27T06:33:05.465Z,97555.22
2023-02-27T06:35:32.227Z,97546.38
2023-02-27T06:37:59.529Z,97545.66
2023-02-27T06:40:26.125Z,97557.81
2023-02-27T06:42:52.654Z,97553.16
2023-02-27T06:45:19.180Z,97556.25
2023-02-27T06:47:45.662Z,97550.91
2023-02-27T06:50:13.773Z,97551.81
2023-02-27T06:52:40.524Z,97551.00
2023-02-27T06:55:08.378Z,97552.56
2023-02-27T06:57:35.146Z,97549.47
2023-02-27T07:00:02.454Z,97549.97
2023-02-27T07:02:29.002Z,97548.56
2023-02-27T07:04:55.996Z,97542.72
2023-02-27T07:07:35.072Z,97541.19
2023-02-27T07:10:11.814Z,97533.63
2023-02-27T07:12:39.417Z,97542.78
2023-02-27T07:15:06.860Z,97545.88
2023-02-27T07:17:35.407Z,97538.16
2023-02-27T07:20:01.935Z,97541.38
2023-02-27T07:22:28.431Z,97542.81
2023-02-27T07:24:56.926Z,97539.84
2023-02-27T07:27:23.331Z,97535.44
2023-02-27T07:29:49.845Z,97532.66
2023-02-27T07:32:16.426Z,97534.31
2023-02-27T07:34:43.230Z,97527.09
2023-02-27T07:37:09.777Z,97522.25
2023-02-27T07:39:36.229Z,97536.53
2023-02-27T07:42:02.886Z,97528.59
2023-02-27T07:44:29.389Z,97525.41
2023-02-27T07:46:55.888Z,97533.06
2023-02-27T07:49:22.991Z,97533.19
2023-02-27T07:51:50.647Z,97520.66
2023-02-27T07:54:17.215Z,97535.09
2023-02-27T07:56:43.610Z,97522.69
2023-02-27T07:59:10.051Z,97525.66
2023-02-27T08:01:36.525Z,97532.59
2023-02-27T08:04:03.099Z,97532.97
2023-02-27T08:06:30.062Z,97538.75
2023-02-27T08:08:56.721Z,97538.47
2023-02-27T08:11:23.450Z,97542.81
2023-02-27T08:14:05.434Z,97536.38
2023-02-27T08:16:32.474Z,97546.81
2023-02-27T08:18:59.758Z,97540.50
2023-02-27T08:21:27.226Z,97532.59
2023-02-27T08:23:54.599Z,97538.25
2023-02-27T08:26:21.430Z,97531.66
2023-02-27T08:28:47.907Z,97537.88
2023-02-27T08:31:14.498Z,97540.63
2023-02-27T08:33:40.893Z,97543.13
2023-02-27T08:36:08.682Z,97536.16
2023-02-27T08:38:35.226Z,97545.13
2023-02-27T08:41:08.750Z,97534.44
2023-02-27T08:43:35.207Z,97541.41
2023-02-27T08:46:01.705Z,97544.69
2023-02-27T08:48:28.199Z,97549.88
2023-02-27T08:50:56.230Z,97541.00
2023-02-27T08:53:26.435Z,97558.41
2023-02-27T08:55:53.374Z,97560.97
2023-02-27T08:58:19.982Z,97571.16
2023-02-27T09:00:46.722Z,97564.94
2023-02-27T09:03:13.288Z,97556.84
2023-02-27T09:05:40.892Z,97555.13
2023-02-27T09:08:07.671Z,97556.66
2023-02-27T09:10:34.409Z,97561.63
2023-02-27T09:13:01.766Z,97554.59
2023-02-27T09:15:28.626Z,97557.50
2023-02-27T09:17:58.282Z,97566.03
2023-02-27T09:20:25.569Z,97569.81
2023-02-27T09:22:52.014Z,97578.34
2023-02-27T09:25:18.541Z,97566.69
2023-02-27T09:27:44.976Z,97569.91
2023-02-27T09:30:12.049Z,97564.00
2023-02-27T09:32:38.513Z,97574.25
2023-02-27T09:35:05.312Z,97567.19
2023-02-27T09:37:31.784Z,97574.84
2023-02-27T09:39:59.191Z,97578.13
2023-02-27T09:42:36.672Z,97581.06
2023-02-27T09:45:06.844Z,97579.34
2023-02-27T09:47:44.503Z,97587.00
2023-02-27T09:50:38.669Z,97585.00
2023-02-27T09:53:11.973Z,97581.34
2023-02-27T09:55:41.993Z,97587.69
2023-02-27T09:58:30.422Z,97586.00
2023-02-27T10:01:14.881Z,97589.81
2023-02-27T10:04:11.102Z,97588.72
2023-02-27T10:06:49.467Z,97607.69
2023-02-27T10:09:49.813Z,97597.84
2023-02-27T10:12:31.524Z,97601.91
2023-02-27T10:15:05.881Z,97607.41
2023-02-27T10:17:51.153Z,97611.47
2023-02-27T10:20:26.400Z,97616.66
2023-02-27T10:22:55.553Z,97608.03
2023-02-27T10:25:31.715Z,97609.06
2023-02-27T10:28:12.495Z,97620.22
2023-02-27T10:30:39.563Z,97617.50
2023-02-27T10:33:35.669Z,97618.13
2023-02-27T10:36:03.587Z,97618.63
2023-02-27T10:38:37.473Z,97618.22
2023-02-27T10:41:05.127Z,97629.19
2023-02-27T10:43:31.804Z,97618.66
2023-02-27T10:46:02.372Z,97617.84
2023-02-27T10:48:31.356Z,97625.84
2023-02-27T10:51:21.145Z,97619.50
2023-02-27T10:53:47.669Z,97623.94
2023-02-27T10:56:25.760Z,97623.81
2023-02-27T10:59:07.967Z,97616.25
2023-02-27T11:01:44.987Z,97617.03
2023-02-27T11:04:12.831Z,97612.06
2023-02-27T11:06:41.704Z,97610.97
2023-02-27T11:09:24.615Z,97609.66
2023-02-27T11:12:17.370Z,97612.50
2023-02-27T11:14:58.323Z,97606.22
2023-02-27T11:17:35.376Z,97608.69
2023-02-27T11:20:06.644Z,97601.91
2023-02-27T11:22:33.545Z,97599.31
2023-02-27T11:25:20.801Z,97592.59
2023-02-27T11:27:48.637Z,97598.56
2023-02-27T11:30:29.470Z,97587.84
2023-02-27T11:32:57.942Z,97589.41
2023-02-27T11:35:33.171Z,97598.84
2023-02-27T11:38:25.994Z,97593.88
2023-02-27T11:40:56.617Z,97596.78
2023-02-27T11:43:31.172Z,97587.34
2023-02-27T11:46:32.133Z,97589.19
2023-02-27T11:49:04.509Z,97590.34
2023-02-27T11:51:57.340Z,97588.53
2023-02-27T11:54:38.823Z,97591.81
2023-02-27T11:57:18.327Z,97585.34
2023-02-27T12:00:08.034Z,97581.78
2023-02-27T12:02:43.396Z,97589.06
2023-02-27T12:05:18.119Z,97578.78
2023-02-27T12:07:46.547Z,97581.94
2023-02-27T12:10:21.449Z,97582.13
2023-02-27T12:13:09.636Z,97579.00
2023-02-27T12:15:47.332Z,97585.78
2023-02-27T12:18:29.885Z,97585.75
2023-02-27T12:21:03.693Z,97567.78
2023-02-27T12:23:43.570Z,97569.97
2023-02-27T12:26:21.950Z,97580.44
2023-02-27T12:29:00.963Z,97576.16
2023-02-27T12:31:36.414Z,97562.28
2023-02-27T12:34:37.193Z,97563.47
2023-02-27T12:37:10.546Z,97570.44
2023-02-27T12:39:38.057Z,97566.81
2023-02-27T12:42:25.226Z,97571.66
2023-02-27T12:45:16.385Z,97570.66
2023-02-27T12:47:54.993Z,97574.31
2023-02-27T12:50:23.773Z,97575.91
2023-02-27T12:53:17.964Z,97577.13
2023-02-27T12:55:51.218Z,97565.41
2023-02-27T12:58:48.761Z,97564.88
2023-02-27T13:01:42.900Z,97564.78
2023-02-27T13:04:25.038Z,97569.69
2023-02-27T13:07:30.025Z,97561.47
2023-02-27T13:10:02.199Z,97562.63
2023-02-27T13:12:43.996Z,97571.47
2023-02-27T13:15:23.607Z,97564.22
2023-02-27T13:18:13.229Z,97558.09
2023-02-27T13:20:52.578Z,97563.66
2023-02-27T13:23:31.251Z,97566.59
2023-02-27T13:26:01.973Z,97564.25
2023-02-27T13:28:29.580Z,97567.19
2023-02-27T13:30:58.821Z,97579.13
2023-02-27T13:33:35.405Z,97569.31
2023-02-27T13:36:23.928Z,97568.38
2023-02-27T13:38:53.128Z,97562.34
2023-02-27T13:41:36.253Z,97565.72
2023-02-27T13:44:20.960Z,97570.06
2023-02-27T13:46:47.800Z,97557.00
2023-02-27T13:49:29.731Z,97563.66
2023-02-27T13:51:59.289Z,97573.63
2023-02-27T13:54:29.629Z,97579.78
2023-02-27T13:56:59.046Z,97574.25
2023-02-27T13:59:39.677Z,97575.19
2023-02-27T14:02:32.577Z,97568.31
2023-02-27T14:05:04.483Z,97573.44
2023-02-27T14:07:51.569Z,97572.72
2023-02-27T14:10:24.583Z,97577.44
2023-02-27T14:12:51.393Z,97578.25
2023-02-27T14:15:17.821Z,97580.41
2023-02-27T14:17:46.668Z,97577.69
2023-02-27T14:20:33.606Z,97569.41
2023-02-27T14:23:28.144Z,97576.81
2023-02-27T14:26:13.967Z,97557.66
2023-02-27T14:28:59.860Z,97565.91
2023-02-27T14:31:32.295Z,97563.94
2023-02-27T14:34:05.337Z,97559.66
2023-02-27T14:36:41.239Z,97558.84
2023-02-27T14:39:20.378Z,97556.75
2023-02-27T14:41:55.579Z,97553.56
2023-02-27T14:44:24.900Z,97556.91
2023-02-27T14:46:54.676Z,97546.97
2023-02-27T14:49:34.474Z,97557.34
2023-02-27T14:52:21.584Z,97551.13
2023-02-27T14:54:49.099Z,97547.84
2023-02-27T14:57:21.705Z,97555.34
2023-02-27T14:59:53.690Z,97548.91
2023-02-27T15:02:25.469Z,97550.19
2023-02-27T15:05:00.847Z,97554.47
2023-02-27T15:07:31.025Z,97547.34
2023-02-27T15:10:01.663Z,97552.16
2023-02-27T15:12:31.953Z,97557.44
2023-02-27T15:15:02.062Z,97556.97
2023-02-27T15:17:38.167Z,97557.00
2023-02-27T15:20:30.561Z,97554.94
2023-02-27T15:22:58.795Z,97555.97
2023-02-27T15:25:37.816Z,97566.06
2023-02-27T15:28:08.045Z,97564.44
2023-02-27T15:30:34.573Z,97562.38
2023-02-27T15:33:03.102Z,97561.50
2023-02-27T15:35:38.344Z,97559.25
2023-02-27T15:38:05.418Z,97555.72
2023-02-27T15:40:34.385Z,97566.03
2023-02-27T15:43:03.422Z,97566.53
2023-02-27T15:45:34.410Z,97570.03
2023-02-27T15:48:01.399Z,97572.81
2023-02-27T15:50:33.210Z,97570.06
2023-02-27T15:53:09.066Z,97573.53
2023-02-27T15:55:40.573Z,97573.50
2023-02-27T15:58:35.491Z,97577.81
2023-02-27T16:01:09.261Z,97571.78
2023-02-27T16:03:38.379Z,97576.97
2023-02-27T16:06:27.500Z,97583.34
2023-02-27T16:08:58.814Z,97577.88
2023-02-27T16:11:27.841Z,97582.31
2023-02-27T16:13:59.110Z,97586.84
2023-02-27T16:16:35.280Z,97590.06
2023-02-27T16:19:30.609Z,97598.16
2023-02-27T16:22:13.825Z,97593.66
2023-02-27T16:24:40.965Z,97599.31
2023-02-27T16:27:17.237Z,97597.56
2023-02-27T16:29:45.262Z,97604.97
2023-02-27T16:32:46.616Z,97599.63
2023-02-27T16:35:22.603Z,97606.44
2023-02-27T16:37:50.325Z,97605.34
2023-02-27T16:40:23.257Z,97610.91
2023-02-27T16:42:51.248Z,97613.78
2023-02-27T16:45:21.168Z,97609.25
2023-02-27T16:47:54.583Z,97622.47
2023-02-27T16:50:28.130Z,97626.06
2023-02-27T16:52:54.980Z,97620.84
2023-02-27T16:55:21.961Z,97615.72
2023-02-27T16:57:48.510Z,97637.75
2023-02-27T17:00:16.542Z,97627.44
2023-02-27T17:02:43.350Z,97640.13
2023-02-27T17:05:10.946Z,97631.09
2023-02-27T17:07:38.710Z,97641.25
2023-02-27T17:10:05.497Z,97635.13
2023-02-27T17:12:31.988Z,97646.88
2023-02-27T17:14:59.052Z,97643.44
2023-02-27T17:17:25.539Z,97639.81
2023-02-27T17:19:51.986Z,97646.78
2023-02-27T17:22:18.947Z,97650.25
2023-02-27T17:24:45.473Z,97658.97
2023-02-27T17:27:11.872Z,97649.47
2023-02-27T17:29:38.966Z,97661.31
2023-02-27T17:32:06.656Z,97661.63
2023-02-27T17:34:33.371Z,97664.13
2023-02-27T17:36:59.983Z,97669.81
2023-02-27T17:39:26.521Z,97670.38
2023-02-27T17:41:54.374Z,97675.97
2023-02-27T17:44:20.975Z,97679.72
2023-02-27T17:46:48.222Z,97681.16
2023-02-27T17:49:15.126Z,97674.75
2023-02-27T17:51:41.680Z,97674.91
2023-02-27T17:54:08.212Z,97685.16
2023-02-27T17:56:36.755Z,97682.16
2023-02-27T17:59:04.147Z,97690.81
2023-02-27T18:01:30.860Z,97694.47
2023-02-27T18:03:57.718Z,97701.81
2023-02-27T18:06:25.742Z,97696.47
2023-02-27T18:08:55.415Z,97701.47
2023-02-27T18:11:22.430Z,97696.06
2023-02-27T18:13:50.475Z,97696.72
2023-02-27T18:16:19.367Z,97702.22
2023-02-27T18:18:45.918Z,97694.97
2023-02-27T18:21:20.141Z,97700.97
2023-02-27T18:23:47.445Z,97698.41
2023-02-27T18:26:28.873Z,97703.22
2023-02-27T18:28:57.149Z,97707.88
2023-02-27T18:31:27.027Z,97700.41
2023-02-27T18:33:54.010Z,97707.31
2023-02-27T18:36:20.557Z,97706.72
2023-02-27T18:38:47.384Z,97707.06
2023-02-27T18:41:14.611Z,97706.88
2023-02-27T18:43:42.554Z,97718.03
2023-02-27T18:46:12.202Z,97710.44
2023-02-27T18:48:39.743Z,97714.56
2023-02-27T18:51:12.224Z,97704.94
2023-02-27T18:53:44.104Z,97712.72
2023-02-27T18:56:11.302Z,97718.69
2023-02-27T18:58:38.122Z,97721.41
2023-02-27T19:01:07.488Z,97720.56
2023-02-27T19:03:35.508Z,97720.69
2023-02-27T19:06:04.109Z,97726.06
2023-02-27T19:08:31.457Z,97724.09
2023-02-27T19:10:58.788Z,97720.63
2023-02-27T19:13:26.813Z,97717.69
2023-02-27T19:15:54.130Z,97720.47
2023-02-27T19:18:20.690Z,97725.03
2023-02-27T19:20:48.292Z,97723.50
2023-02-27T19:23:14.796Z,97725.19
2023-02-27T19:25:45.869Z,97721.06
2023-02-27T19:28:14.405Z,97722.06
2023-02-27T19:30:41.116Z,97717.16
2023-02-27T19:33:07.530Z,97721.25
2023-02-27T19:35:34.012Z,97723.22
2023-02-27T19:38:04.059Z,97725.44
2023-02-27T19:40:30.477Z,97721.63
2023-02-27T19:42:57.198Z,97721.53
2023-02-27T19:45:23.650Z,97720.63
2023-02-27T19:47:50.343Z,97718.50
2023-02-27T19:50:17.331Z,97729.44
2023-02-27T19:52:43.774Z,97724.97
2023-02-27T19:55:10.678Z,97728.09
2023-02-27T19:57:37.449Z,97732.47
2023-02-27T20:00:09.030Z,97731.84
2023-02-27T20:02:41.854Z,97729.06
2023-02-27T20:05:12.119Z,97732.38
2023-02-27T20:07:39.167Z,97734.81
2023-02-27T20:10:05.877Z,97735.34
2023-02-27T20:12:32.709Z,97738.38
2023-02-27T20:14:59.230Z,97733.91
2023-02-27T20:17:25.685Z,97737.03
2023-02-27T20:19:52.113Z,97740.19
2023-02-27T20:22:18.633Z,97742.50
2023-02-27T20:24:45.096Z,97738.25
2023-02-27T20:27:12.193Z,97739.16
2023-02-27T20:29:40.454Z,97733.38
2023-02-27T20:32:08.881Z,97726.19
2023-02-27T20:34:35.396Z,97730.59
2023-02-27T20:37:03.103Z,97727.09
2023-02-27T20:39:29.710Z,97719.06
2023-02-27T20:41:57.196Z,97729.44
2023-02-27T20:44:23.699Z,97727.63
2023-02-27T20:46:50.148Z,97731.69
2023-02-27T20:49:17.307Z,97732.09
2023-02-27T20:51:44.444Z,97724.97
2023-02-27T20:54:19.910Z,97722.53
2023-02-27T20:56:47.940Z,97732.94
2023-02-27T20:59:16.766Z,97721.84
2023-02-27T21:01:53.953Z,97717.31
2023-02-27T21:04:34.090Z,97722.91
2023-02-27T21:07:00.748Z,97720.19
2023-02-27T21:09:27.187Z,97726.25
2023-02-27T21:11:53.652Z,97719.66
2023-02-27T21:14:20.966Z,97719.66
2023-02-27T21:16:53.361Z,97723.72
2023-02-27T21:19:20.636Z,97711.53
2023-02-27T21:21:47.170Z,97721.81
2023-02-27T21:24:14.995Z,97719.50
2023-02-27T21:26:42.372Z,97725.69
2023-02-27T21:29:11.690Z,97727.16
2023-02-27T21:31:40.944Z,97724.22
2023-02-27T21:34:11.221Z,97723.72
2023-02-27T21:36:43.070Z,97715.91
2023-02-27T21:39:12.662Z,97716.75
2023-02-27T21:41:39.739Z,97711.91
2023-02-27T21:44:08.164Z,97720.16
2023-02-27T21:46:35.486Z,97712.50
2023-02-27T21:49:02.454Z,97708.78
2023-02-27T21:51:40.153Z,97709.38
2023-02-27T21:54:09.424Z,97712.13
2023-02-27T21:56:35.917Z,97706.00
2023-02-27T21:59:02.505Z,97705.22
2023-02-27T22:01:29.937Z,97696.34
2023-02-27T22:03:57.355Z,97705.81
2023-02-27T22:06:26.479Z,97700.13
2023-02-27T22:08:58.440Z,97695.66
2023-02-27T22:11:29.263Z,97698.53
2023-02-27T22:13:56.027Z,97697.75
2023-02-27T22:16:23.195Z,97686.91
2023-02-27T22:18:49.720Z,97701.31
2023-02-27T22:21:22.612Z,97700.69
2023-02-27T22:23:50.211Z,97706.59
2023-02-27T22:26:24.152Z,97705.63
2023-02-27T22:28:52.366Z,97708.28
2023-02-27T22:31:28.273Z,97706.13
2023-02-27T22:33:58.618Z,97708.53
2023-02-27T22:36:27.717Z,97691.81
2023-02-27T22:38:54.162Z,97696.38
2023-02-27T22:41:23.680Z,97700.56
2023-02-27T22:43:51.104Z,97703.13
2023-02-27T22:46:25.059Z,97702.09
2023-02-27T22:49:00.218Z,97699.34
2023-02-27T22:51:28.581Z,97703.94
2023-02-27T22:54:03.106Z,97697.97
2023-02-27T22:56:30.648Z,97695.59
2023-02-27T22:58:57.342Z,97708.53
2023-02-27T23:01:26.453Z,97706.28
2023-02-27T23:03:56.022Z,97711.47
2023-02-27T23:06:27.849Z,97710.44
2023-02-27T23:08:54.194Z,97716.06
2023-02-27T23:11:21.756Z,97712.19
2023-02-27T23:13:50.180Z,97713.16
2023-02-27T23:16:17.578Z,97705.94
2023-02-27T23:18:49.937Z,97705.22
2023-02-27T23:21:18.720Z,97715.13
2023-02-27T23:23:46.990Z,97707.81
2023-02-27T23:26:14.133Z,97712.81
2023-02-27T23:28:41.060Z,97711.25
2023-02-27T23:31:08.780Z,97718.09
2023-02-27T23:33:36.062Z,97717.88
2023-02-27T23:36:03.255Z,97721.38
2023-02-27T23:38:29.943Z,97716.91
2023-02-27T23:40:56.604Z,97719.13
2023-02-27T23:43:23.440Z,97714.41
2023-02-27T23:45:50.084Z,97710.91
2023-02-27T23:48:16.688Z,97708.97
2023-02-27T23:50:44.644Z,97720.28
2023-02-27T23:53:13.347Z,97716.34
2023-02-27T23:55:40.928Z,97707.03
2023-02-27T23:58:09.885Z,97705.22
